PWSweather.com
Personal Weather Stations
Station Observations
948974
Valtournenche, AostaIT 11028

ValtournencheAostaIT 11028

Lat: 45.877222, Lon: 7.625556

Elevation: 5085.3018

Station Type: PCE-FWS 20

http://www.cdso.it

High Low Average
Temperature 67.2°F19.6°C 38.3°F3.5°C 48.7°F9.3°C
Dew Point 22.5°F-5.3°C 14.8°F-9.6°C 19.1°F-7.2°C
Winds 7.0 mph 11.3 kmh 1.0 mph 1.6 kmh 3.0 mph ESE4.8 kmh ESE
Wind Gusts 11.0 mph17.7 kmh 2.0 mph3.2 kmh 6.0 mph9.7 kmh
Humidity 50% 16% 33%
Pressure 30.35 in1027.8 mb 29.90 in1012.5 mb -
Precipitation 0.00 in0.0 mm - -
Hour Temp Dew Point Humidity Winds Wind Gusts Pressure Precip Precip Rate Daily Precip Total
12:13 AM 42.4°F5.8°C 21.5°F-5.8°C 43% 5.0 mph 8.0 kmh 8.0 mph12.9 kmh 30.35 in1027.8 mb 0.00 in0.0 mm 0.00 in0.0 mm 0.00 in0.0 mm
12:34 AM 44.1°F6.7°C 19.5°F-6.9°C 37% 7.0 mph 11.3 kmh 8.0 mph12.9 kmh 30.32 in1026.8 mb 0.00 in0.0 mm 0.00 in0.0 mm 0.00 in0.0 mm
12:55 AM 41.9°F5.5°C 21.6°F-5.8°C 44% 3.0 mph 4.8 kmh 5.0 mph8.0 kmh 30.34 in1027.4 mb 0.00 in0.0 mm 0.00 in0.0 mm 0.00 in0.0 mm
01:16 AM 41.7°F5.4°C 21.4°F-5.9°C 44% 2.0 mph 3.2 kmh 3.0 mph4.8 kmh 30.34 in1027.4 mb 0.00 in0.0 mm 0.00 in0.0 mm 0.00 in0.0 mm
01:37 AM 41.2°F5.1°C 21.5°F-5.8°C 45% 2.0 mph 3.2 kmh 3.0 mph4.8 kmh 30.35 in1027.8 mb 0.00 in0.0 mm 0.00 in0.0 mm 0.00 in0.0 mm
01:58 AM 40.6°F4.8°C 22.0°F-5.6°C 47% 4.0 mph 6.4 kmh 4.0 mph6.4 kmh 30.35 in1027.8 mb 0.00 in0.0 mm 0.00 in0.0 mm 0.00 in0.0 mm
02:19 AM 39.9°F4.4°C 21.8°F-5.7°C 48% 3.0 mph 4.8 kmh 4.0 mph6.4 kmh 30.35 in1027.8 mb 0.00 in0.0 mm 0.00 in0.0 mm 0.00 in0.0 mm
02:40 AM 40.6°F4.8°C 22.5°F-5.3°C 48% 2.0 mph 3.2 kmh 4.0 mph6.4 kmh 30.34 in1027.4 mb 0.00 in0.0 mm 0.00 in0.0 mm 0.00 in0.0 mm
03:01 AM 39.2°F4.0°C 22.1°F-5.5°C 50% 3.0 mph 4.8 kmh 4.0 mph6.4 kmh 30.35 in1027.8 mb 0.00 in0.0 mm 0.00 in0.0 mm 0.00 in0.0 mm
03:22 AM 40.3°F4.6°C 22.2°F-5.4°C 48% 2.0 mph 3.2 kmh 3.0 mph4.8 kmh 30.34 in1027.4 mb 0.00 in0.0 mm 0.00 in0.0 mm 0.00 in0.0 mm
03:43 AM 39.4°F4.1°C 21.8°F-5.7°C 49% 3.0 mph 4.8 kmh 4.0 mph6.4 kmh 30.34 in1027.4 mb 0.00 in0.0 mm 0.00 in0.0 mm 0.00 in0.0 mm
04:04 AM 39.0°F3.9°C 22.0°F-5.6°C 50% 3.0 mph 4.8 kmh 4.0 mph6.4 kmh 30.34 in1027.4 mb 0.00 in0.0 mm 0.00 in0.0 mm 0.00 in0.0 mm
04:25 AM 39.2°F4.0°C 21.7°F-5.7°C 49% 3.0 mph 4.8 kmh 4.0 mph6.4 kmh 30.34 in1027.4 mb 0.00 in0.0 mm 0.00 in0.0 mm 0.00 in0.0 mm
04:46 AM 39.9°F4.4°C 20.8°F-6.2°C 46% 2.0 mph 3.2 kmh 4.0 mph6.4 kmh 30.34 in1027.4 mb 0.00 in0.0 mm 0.00 in0.0 mm 0.00 in0.0 mm
05:07 AM 39.2°F4.0°C 20.7°F-6.3°C 47% 4.0 mph 6.4 kmh 5.0 mph8.0 kmh 30.33 in1027.1 mb 0.00 in0.0 mm 0.00 in0.0 mm 0.00 in0.0 mm
05:28 AM 38.8°F3.8°C 21.8°F-5.7°C 50% 3.0 mph 4.8 kmh 4.0 mph6.4 kmh 30.34 in1027.4 mb 0.00 in0.0 mm 0.00 in0.0 mm 0.00 in0.0 mm
05:49 AM 38.8°F3.8°C 21.3°F-5.9°C 49% 2.0 mph 3.2 kmh 3.0 mph4.8 kmh 30.34 in1027.4 mb 0.00 in0.0 mm 0.00 in0.0 mm 0.00 in0.0 mm
06:10 AM 38.8°F3.8°C 21.3°F-5.9°C 49% 3.0 mph 4.8 kmh 4.0 mph6.4 kmh 30.34 in1027.4 mb 0.00 in0.0 mm 0.00 in0.0 mm 0.00 in0.0 mm
06:31 AM 39.2°F4.0°C 20.2°F-6.6°C 46% 2.0 mph 3.2 kmh 3.0 mph4.8 kmh 30.33 in1027.1 mb 0.00 in0.0 mm 0.00 in0.0 mm 0.00 in0.0 mm
06:52 AM 38.3°F3.5°C 20.8°F-6.2°C 49% 3.0 mph 4.8 kmh 4.0 mph6.4 kmh 30.34 in1027.4 mb 0.00 in0.0 mm 0.00 in0.0 mm 0.00 in0.0 mm
07:13 AM 38.7°F3.7°C 20.7°F-6.3°C 48% 1.0 mph 1.6 kmh 2.0 mph3.2 kmh 30.34 in1027.4 mb 0.00 in0.0 mm 0.00 in0.0 mm 0.00 in0.0 mm
07:34 AM 38.7°F3.7°C 20.7°F-6.3°C 48% 2.0 mph 3.2 kmh 3.0 mph4.8 kmh 30.34 in1027.4 mb 0.00 in0.0 mm 0.00 in0.0 mm 0.00 in0.0 mm
07:55 AM 39.2°F4.0°C 20.2°F-6.6°C 46% 3.0 mph 4.8 kmh 4.0 mph6.4 kmh 30.33 in1027.1 mb 0.00 in0.0 mm 0.00 in0.0 mm 0.00 in0.0 mm
08:16 AM 39.6°F4.2°C 20.5°F-6.4°C 46% 3.0 mph 4.8 kmh 4.0 mph6.4 kmh 30.32 in1026.8 mb 0.00 in0.0 mm 0.00 in0.0 mm 0.00 in0.0 mm
08:37 AM 40.8°F4.9°C 21.1°F-6.1°C 45% 3.0 mph 4.8 kmh 4.0 mph6.4 kmh 30.31 in1026.4 mb 0.00 in0.0 mm 0.00 in0.0 mm 0.00 in0.0 mm
08:42 AM 42.3°F5.7°C 21.4°F-5.9°C 43% 3.0 mph 4.8 kmh 4.0 mph6.4 kmh 30.29 in1025.7 mb 0.00 in0.0 mm 0.00 in0.0 mm 0.00 in0.0 mm
09:03 AM 46.2°F7.9°C 19.7°F-6.8°C 35% 2.0 mph 3.2 kmh 4.0 mph6.4 kmh 30.25 in1024.4 mb 0.00 in0.0 mm 0.00 in0.0 mm 0.00 in0.0 mm
09:21 AM 51.6°F10.9°C 18.4°F-7.6°C 27% 1.0 mph 1.6 kmh 2.0 mph3.2 kmh 30.18 in1022.0 mb 0.00 in0.0 mm 0.00 in0.0 mm 0.00 in0.0 mm
09:42 AM 53.9°F12.2°C 15.6°F-9.1°C 22% 1.0 mph 1.6 kmh 4.0 mph6.4 kmh 30.16 in1021.3 mb 0.00 in0.0 mm 0.00 in0.0 mm 0.00 in0.0 mm
10:03 AM 52.8°F11.6°C 15.0°F-9.4°C 22% 3.0 mph 4.8 kmh 6.0 mph9.7 kmh 30.17 in1021.7 mb 0.00 in0.0 mm 0.00 in0.0 mm 0.00 in0.0 mm
10:21 AM 52.5°F11.4°C 14.8°F-9.6°C 22% 2.0 mph 3.2 kmh 3.0 mph4.8 kmh 30.17 in1021.7 mb 0.00 in0.0 mm 0.00 in0.0 mm 0.00 in0.0 mm
10:42 AM 54.4°F12.4°C 16.0°F-8.9°C 22% 2.0 mph 3.2 kmh 4.0 mph6.4 kmh 30.14 in1020.7 mb 0.00 in0.0 mm 0.00 in0.0 mm 0.00 in0.0 mm
11:03 AM 55.1°F12.8°C 16.3°F-8.7°C 21% 3.0 mph 4.8 kmh 5.0 mph8.0 kmh 30.13 in1020.3 mb 0.00 in0.0 mm 0.00 in0.0 mm 0.00 in0.0 mm
11:21 AM 57.2°F14.0°C 19.2°F-7.1°C 22% 3.0 mph 4.8 kmh 4.0 mph6.4 kmh 30.10 in1019.3 mb 0.00 in0.0 mm 0.00 in0.0 mm 0.00 in0.0 mm
11:42 AM 57.1°F13.9°C 19.0°F-7.2°C 22% 3.0 mph S4.8 kmh S 6.0 mph9.7 kmh 30.10 in1019.3 mb 0.00 in0.0 mm 0.00 in0.0 mm 0.00 in0.0 mm
12:21 PM 58.8°F14.9°C 19.0°F-7.2°C 21% 4.0 mph S6.4 kmh S 8.0 mph12.9 kmh 30.07 in1018.3 mb 0.00 in0.0 mm 0.00 in0.0 mm 0.00 in0.0 mm
12:42 PM 59.7°F15.4°C 19.7°F-6.8°C 21% 4.0 mph S6.4 kmh S 8.0 mph12.9 kmh 30.05 in1017.6 mb 0.00 in0.0 mm 0.00 in0.0 mm 0.00 in0.0 mm
01:21 PM 60.7°F15.9°C 19.8°F-6.8°C 20% 6.0 mph S9.7 kmh S 8.0 mph12.9 kmh 30.03 in1016.9 mb 0.00 in0.0 mm 0.00 in0.0 mm 0.00 in0.0 mm
01:42 PM 60.8°F16.0°C 20.4°F-6.4°C 21% 5.0 mph S8.0 kmh S 10.0 mph16.1 kmh 30.02 in1016.6 mb 0.00 in0.0 mm 0.00 in0.0 mm 0.00 in0.0 mm
02:03 PM 60.2°F15.7°C 20.2°F-6.6°C 21% 6.0 mph S9.7 kmh S 10.0 mph16.1 kmh 30.01 in1016.3 mb 0.00 in0.0 mm 0.00 in0.0 mm 0.00 in0.0 mm
02:21 PM 61.9°F16.6°C 20.4°F-6.4°C 20% 4.0 mph S6.4 kmh S 9.0 mph14.5 kmh 29.98 in1015.2 mb 0.00 in0.0 mm 0.00 in0.0 mm 0.00 in0.0 mm
02:42 PM 62.8°F17.1°C 19.2°F-7.1°C 18% 3.0 mph S4.8 kmh S 7.0 mph11.3 kmh 29.97 in1014.9 mb 0.00 in0.0 mm 0.00 in0.0 mm 0.00 in0.0 mm
03:03 PM 64.0°F17.8°C 19.4°F-7.0°C 18% 4.0 mph S6.4 kmh S 8.0 mph12.9 kmh 29.95 in1014.2 mb 0.00 in0.0 mm 0.00 in0.0 mm 0.00 in0.0 mm
03:21 PM 65.3°F18.5°C 19.1°F-7.2°C 17% 5.0 mph SSW8.0 kmh SSW 10.0 mph16.1 kmh 29.93 in1013.5 mb 0.00 in0.0 mm 0.00 in0.0 mm 0.00 in0.0 mm
03:42 PM 65.3°F18.5°C 19.0°F-7.2°C 17% 3.0 mph WNW4.8 kmh WNW 7.0 mph11.3 kmh 29.93 in1013.5 mb 0.00 in0.0 mm 0.00 in0.0 mm 0.00 in0.0 mm
04:03 PM 62.6°F17.0°C 18.5°F-7.5°C 18% 2.0 mph W3.2 kmh W 4.0 mph6.4 kmh 29.95 in1014.2 mb 0.00 in0.0 mm 0.00 in0.0 mm 0.00 in0.0 mm
04:21 PM 64.8°F18.2°C 19.3°F-7.1°C 17% 2.0 mph SW3.2 kmh SW 5.0 mph8.0 kmh 29.92 in1013.2 mb 0.00 in0.0 mm 0.00 in0.0 mm 0.00 in0.0 mm
04:42 PM 67.2°F19.6°C 19.5°F-6.9°C 16% 2.0 mph NNE3.2 kmh NNE 5.0 mph8.0 kmh 29.90 in1012.5 mb 0.00 in0.0 mm 0.00 in0.0 mm 0.00 in0.0 mm
05:03 PM 66.5°F19.2°C 19.5°F-6.9°C 16% 1.0 mph SW1.6 kmh SW 4.0 mph6.4 kmh 29.90 in1012.5 mb 0.00 in0.0 mm 0.00 in0.0 mm 0.00 in0.0 mm
05:21 PM 59.9°F15.5°C 18.4°F-7.6°C 20% 3.0 mph NNW4.8 kmh NNW 6.0 mph9.7 kmh 29.97 in1014.9 mb 0.00 in0.0 mm 0.00 in0.0 mm 0.00 in0.0 mm
05:42 PM 54.4°F12.4°C 15.5°F-9.2°C 21% 4.0 mph 6.4 kmh 8.0 mph12.9 kmh 30.02 in1016.6 mb 0.00 in0.0 mm 0.00 in0.0 mm 0.00 in0.0 mm
06:03 PM 53.0°F11.7°C 15.2°F-9.3°C 22% 4.0 mph 6.4 kmh 9.0 mph14.5 kmh 30.04 in1017.3 mb 0.00 in0.0 mm 0.00 in0.0 mm 0.00 in0.0 mm
06:21 PM 52.3°F11.3°C 15.0°F-9.4°C 22% 5.0 mph 8.0 kmh 8.0 mph12.9 kmh 30.04 in1017.3 mb 0.00 in0.0 mm 0.00 in0.0 mm 0.00 in0.0 mm
06:42 PM 51.7°F10.9°C 15.7°F-9.1°C 24% 4.0 mph NW6.4 kmh NW 8.0 mph12.9 kmh 30.06 in1017.9 mb 0.00 in0.0 mm 0.00 in0.0 mm 0.00 in0.0 mm
07:03 PM 50.3°F10.2°C 15.6°F-9.1°C 25% 3.0 mph NW4.8 kmh NW 9.0 mph14.5 kmh 30.07 in1018.3 mb 0.00 in0.0 mm 0.00 in0.0 mm 0.00 in0.0 mm
07:21 PM 48.3°F9.1°C 16.5°F-8.6°C 28% 2.0 mph NW3.2 kmh NW 5.0 mph8.0 kmh 30.10 in1019.3 mb 0.00 in0.0 mm 0.00 in0.0 mm 0.00 in0.0 mm
08:03 PM 47.1°F8.4°C 16.5°F-8.6°C 29% 3.0 mph NW4.8 kmh NW 6.0 mph9.7 kmh 30.11 in1019.6 mb 0.00 in0.0 mm 0.00 in0.0 mm 0.00 in0.0 mm
08:21 PM 47.0°F8.3°C 17.2°F-8.2°C 30% 5.0 mph NW8.0 kmh NW 11.0 mph17.7 kmh 30.12 in1020.0 mb 0.00 in0.0 mm 0.00 in0.0 mm 0.00 in0.0 mm
08:42 PM 47.0°F8.3°C 16.9°F-8.4°C 30% 4.0 mph NW6.4 kmh NW 9.0 mph14.5 kmh 30.12 in1020.0 mb 0.00 in0.0 mm 0.00 in0.0 mm 0.00 in0.0 mm
09:03 PM 45.0°F7.2°C 17.1°F-8.3°C 32% 3.0 mph NW4.8 kmh NW 8.0 mph12.9 kmh 30.14 in1020.7 mb 0.00 in0.0 mm 0.00 in0.0 mm 0.00 in0.0 mm
09:21 PM 44.9°F7.2°C 18.2°F-7.7°C 34% 4.0 mph NW6.4 kmh NW 7.0 mph11.3 kmh 30.14 in1020.7 mb 0.00 in0.0 mm 0.00 in0.0 mm 0.00 in0.0 mm
09:42 PM 44.5°F6.9°C 18.2°F-7.7°C 35% 3.0 mph NW4.8 kmh NW 8.0 mph12.9 kmh 30.15 in1021.0 mb 0.00 in0.0 mm 0.00 in0.0 mm 0.00 in0.0 mm
10:03 PM 45.1°F7.3°C 16.9°F-8.4°C 32% 4.0 mph NW6.4 kmh NW 7.0 mph11.3 kmh 30.14 in1020.7 mb 0.00 in0.0 mm 0.00 in0.0 mm 0.00 in0.0 mm
10:21 PM 44.2°F6.8°C 17.2°F-8.2°C 33% 4.0 mph NW6.4 kmh NW 6.0 mph9.7 kmh 30.14 in1020.7 mb 0.00 in0.0 mm 0.00 in0.0 mm 0.00 in0.0 mm
10:42 PM 44.0°F6.7°C 17.5°F-8.1°C 34% 3.0 mph NW4.8 kmh NW 8.0 mph12.9 kmh 30.14 in1020.7 mb 0.00 in0.0 mm 0.00 in0.0 mm 0.00 in0.0 mm
11:03 PM 43.6°F6.4°C 17.8°F-7.9°C 35% 3.0 mph NW4.8 kmh NW 7.0 mph11.3 kmh 30.14 in1020.7 mb 0.00 in0.0 mm 0.00 in0.0 mm 0.00 in0.0 mm
11:21 PM 43.7°F6.5°C 17.2°F-8.2°C 34% 5.0 mph NW8.0 kmh NW 8.0 mph12.9 kmh 30.14 in1020.7 mb 0.00 in0.0 mm 0.00 in0.0 mm 0.00 in0.0 mm
11:42 PM 43.0°F6.1°C 17.8°F-7.9°C 36% 4.0 mph NW6.4 kmh NW 8.0 mph12.9 kmh 30.14 in1020.7 mb 0.00 in0.0 mm 0.00 in0.0 mm 0.00 in0.0 mm